createdAt,value
2017-09-24T00:02:20.264Z,18.60
2017-09-24T00:04:50.486Z,17.90
2017-09-24T00:07:19.991Z,17.00
2017-09-24T00:09:49.392Z,18.70
2017-09-24T00:12:18.546Z,18.50
2017-09-24T00:14:48.830Z,17.10
2017-09-24T00:17:18.937Z,17.00
2017-09-24T00:19:49.891Z,17.50
2017-09-24T00:22:19.207Z,17.70
2017-09-24T00:24:49.425Z,16.50
2017-09-24T00:27:19.070Z,16.50
2017-09-24T00:29:49.236Z,16.10
2017-09-24T00:32:18.492Z,16.20
2017-09-24T00:34:47.852Z,16.60
2017-09-24T00:37:17.319Z,15.50
2017-09-24T00:39:46.674Z,16.10
2017-09-24T00:42:16.185Z,17.10
2017-09-24T00:44:45.680Z,16.60
2017-09-24T00:47:15.194Z,15.20
2017-09-24T00:49:45.921Z,16.10
2017-09-24T00:52:15.193Z,15.30
2017-09-24T00:54:44.736Z,15.90
2017-09-24T00:57:13.952Z,15.90
2017-09-24T00:59:44.540Z,17.10
2017-09-24T01:02:13.732Z,17.10
2017-09-24T01:04:43.177Z,18.00
2017-09-24T01:07:13.045Z,17.50
2017-09-24T01:09:42.274Z,17.40
2017-09-24T01:12:12.168Z,20.10
2017-09-24T01:14:41.648Z,20.00
2017-09-24T01:17:11.166Z,19.30
2017-09-24T01:19:40.409Z,19.60
2017-09-24T01:22:10.607Z,19.90
2017-09-24T01:24:39.992Z,19.80
2017-09-24T01:27:09.210Z,19.70
2017-09-24T01:29:38.568Z,19.50
2017-09-24T01:32:08.610Z,21.10
2017-09-24T01:34:38.493Z,21.10
2017-09-24T01:37:08.204Z,22.80
2017-09-24T01:39:37.781Z,22.30
2017-09-24T01:42:07.012Z,22.40
2017-09-24T01:44:36.259Z,23.70
2017-09-24T01:47:05.427Z,23.90
2017-09-24T01:49:34.791Z,24.80
2017-09-24T01:52:04.719Z,27.00
2017-09-24T01:54:34.112Z,26.90
2017-09-24T01:57:03.401Z,27.50
2017-09-24T01:59:32.776Z,29.40
2017-09-24T02:02:03.410Z,30.90
2017-09-24T02:04:32.969Z,30.80
2017-09-24T02:07:02.276Z,31.20
2017-09-24T02:09:31.934Z,30.30
2017-09-24T02:12:01.827Z,31.40
2017-09-24T02:14:31.161Z,31.20
2017-09-24T02:16:59.876Z,32.50
2017-09-24T02:19:30.502Z,32.90
2017-09-24T02:22:00.041Z,34.00
2017-09-24T02:24:28.766Z,34.00
2017-09-24T02:26:57.856Z,35.30
2017-09-24T02:29:28.084Z,35.30
2017-09-24T02:31:57.238Z,36.20
2017-09-24T02:34:26.369Z,36.20
2017-09-24T02:36:56.167Z,36.50
2017-09-24T02:39:24.961Z,37.30
2017-09-24T02:41:54.297Z,37.70
2017-09-24T02:44:23.344Z,38.20
2017-09-24T02:46:52.938Z,38.60
2017-09-24T02:49:21.705Z,38.70
2017-09-24T02:51:58.613Z,40.20
2017-09-24T02:54:28.324Z,40.00
2017-09-24T02:56:57.448Z,41.10
2017-09-24T02:59:26.726Z,41.20
2017-09-24T03:01:55.504Z,41.70
2017-09-24T03:04:25.027Z,42.50
2017-09-24T03:06:54.821Z,43.70
2017-09-24T03:09:24.182Z,43.30
2017-09-24T03:11:53.408Z,44.00
2017-09-24T03:14:22.720Z,44.60
2017-09-24T03:16:51.966Z,45.20
2017-09-24T03:19:21.132Z,46.20
2017-09-24T03:21:50.086Z,46.40
2017-09-24T03:24:19.419Z,46.40
2017-09-24T03:26:48.639Z,46.80
2017-09-24T03:29:17.547Z,47.50
2017-09-24T03:31:46.300Z,47.70
2017-09-24T03:34:15.017Z,47.40
2017-09-24T03:36:44.020Z,47.80
2017-09-24T03:39:13.577Z,48.30
2017-09-24T03:41:42.807Z,48.40
2017-09-24T03:44:12.932Z,48.40
2017-09-24T03:46:41.675Z,47.90
2017-09-24T03:49:10.336Z,49.40
2017-09-24T03:51:39.767Z,46.70
2017-09-24T03:54:09.080Z,46.50
2017-09-24T03:56:38.765Z,47.10
2017-09-24T03:59:08.048Z,47.30
2017-09-24T04:01:38.138Z,48.10
2017-09-24T04:04:07.535Z,48.10
2017-09-24T04:06:37.561Z,47.80
2017-09-24T04:09:06.294Z,48.00
2017-09-24T04:14:12.936Z,49.70
2017-09-24T04:16:43.125Z,50.60
2017-09-24T04:19:12.195Z,50.40
2017-09-24T04:21:40.965Z,51.70
2017-09-24T04:24:10.172Z,52.10
2017-09-24T04:26:40.357Z,53.50
2017-09-24T04:29:09.041Z,53.30
2017-09-24T04:31:38.426Z,54.00
2017-09-24T04:34:07.631Z,54.60
2017-09-24T04:36:37.061Z,55.60
2017-09-24T04:39:06.080Z,55.00
2017-09-24T04:41:36.172Z,56.50
2017-09-24T04:44:04.993Z,56.60
2017-09-24T04:46:36.041Z,58.10
2017-09-24T04:49:04.804Z,58.00
2017-09-24T04:51:34.189Z,58.90
2017-09-24T04:54:03.897Z,58.80
2017-09-24T04:56:32.823Z,58.90
2017-09-24T04:59:02.326Z,60.20
2017-09-24T05:01:31.771Z,61.00
2017-09-24T05:04:00.811Z,61.00
2017-09-24T05:06:29.632Z,61.80
2017-09-24T05:09:00.222Z,62.80
2017-09-24T05:11:29.914Z,62.80
2017-09-24T05:13:58.969Z,63.00
2017-09-24T05:16:28.445Z,64.00
2017-09-24T05:18:57.731Z,63.40
2017-09-24T05:21:27.830Z,64.30
2017-09-24T05:23:57.035Z,64.00
2017-09-24T05:26:26.665Z,64.50
2017-09-24T05:28:55.373Z,65.00
2017-09-24T05:31:24.167Z,64.70
2017-09-24T05:33:53.679Z,65.80
2017-09-24T05:36:22.392Z,65.70
2017-09-24T05:38:51.962Z,65.50
2017-09-24T05:41:22.393Z,65.90
2017-09-24T05:43:51.548Z,66.10
2017-09-24T05:46:27.028Z,66.70
2017-09-24T05:48:56.147Z,66.70
2017-09-24T05:51:25.168Z,66.80
2017-09-24T05:53:55.062Z,67.00
2017-09-24T05:56:25.542Z,67.20
2017-09-24T05:58:55.210Z,68.60
2017-09-24T06:01:23.895Z,69.00
2017-09-24T06:03:53.372Z,68.90
2017-09-24T06:06:22.866Z,69.60
2017-09-24T06:08:53.192Z,69.30
2017-09-24T06:11:22.941Z,69.20
2017-09-24T06:13:52.233Z,69.10
2017-09-24T06:16:22.129Z,68.80
2017-09-24T06:18:51.966Z,68.90
2017-09-24T06:21:21.648Z,68.70
2017-09-24T06:23:51.094Z,69.20
2017-09-24T06:26:20.405Z,68.80
2017-09-24T06:28:49.617Z,68.80
2017-09-24T06:31:18.980Z,68.90
2017-09-24T06:33:48.540Z,69.30
2017-09-24T06:36:19.011Z,69.30
2017-09-24T06:38:48.504Z,69.20
2017-09-24T06:41:18.162Z,69.40
2017-09-24T06:43:47.589Z,69.90
2017-09-24T06:46:18.229Z,70.60
2017-09-24T06:48:48.009Z,72.00
2017-09-24T06:51:17.169Z,71.90
2017-09-24T06:53:46.366Z,71.90
2017-09-24T06:56:15.686Z,71.80
2017-09-24T06:58:45.200Z,71.50
2017-09-24T07:01:14.722Z,71.60
2017-09-24T07:03:43.976Z,71.50
2017-09-24T07:06:17.501Z,72.00
2017-09-24T07:08:46.766Z,72.10
2017-09-24T07:11:16.197Z,72.80
2017-09-24T07:13:46.239Z,74.30
2017-09-24T07:16:15.757Z,74.60
2017-09-24T07:18:45.586Z,74.80
2017-09-24T07:21:15.123Z,74.60
2017-09-24T07:23:44.318Z,74.90
2017-09-24T07:26:13.692Z,74.70
2017-09-24T07:28:43.735Z,74.90
2017-09-24T07:31:12.653Z,74.70
2017-09-24T07:33:41.898Z,74.20
2017-09-24T07:36:11.091Z,74.20
2017-09-24T07:38:41.109Z,74.60
2017-09-24T07:41:11.227Z,74.20
2017-09-24T07:43:40.759Z,74.10
2017-09-24T07:46:09.500Z,74.10
2017-09-24T07:48:38.398Z,74.00
2017-09-24T07:51:07.096Z,75.00
2017-09-24T07:53:36.157Z,74.50
2017-09-24T07:56:06.533Z,74.70
2017-09-24T07:58:35.752Z,74.90
2017-09-24T08:01:05.032Z,75.20
2017-09-24T08:03:34.531Z,75.20
2017-09-24T08:06:04.675Z,76.00
2017-09-24T08:08:34.079Z,76.00
2017-09-24T08:11:03.424Z,76.00
2017-09-24T08:13:32.727Z,76.10
2017-09-24T08:16:02.494Z,76.40
2017-09-24T08:18:31.730Z,76.50
2017-09-24T08:21:01.010Z,76.20
2017-09-24T08:23:30.594Z,75.60
2017-09-24T08:25:59.949Z,76.60
2017-09-24T08:28:29.205Z,76.60
2017-09-24T08:30:58.559Z,76.20
2017-09-24T08:33:27.902Z,75.70
2017-09-24T08:35:57.072Z,76.10
2017-09-24T08:38:26.500Z,75.40
2017-09-24T08:40:55.626Z,75.10
2017-09-24T08:43:25.219Z,74.70
2017-09-24T08:45:54.329Z,74.70
2017-09-24T08:48:23.688Z,74.80
2017-09-24T08:50:53.984Z,74.80
2017-09-24T08:53:23.072Z,74.80
2017-09-24T08:55:52.305Z,74.60
2017-09-24T08:58:22.488Z,74.00
2017-09-24T09:00:51.550Z,74.10
2017-09-24T09:03:20.862Z,74.00
2017-09-24T09:05:50.217Z,73.80
2017-09-24T09:08:20.022Z,74.60
2017-09-24T09:10:49.308Z,74.80
2017-09-24T09:13:18.957Z,74.80
2017-09-24T09:15:48.056Z,75.30
2017-09-24T09:18:18.639Z,75.40
2017-09-24T09:20:47.851Z,75.30
2017-09-24T09:23:16.923Z,75.00
2017-09-24T09:25:46.196Z,75.00
2017-09-24T09:28:15.524Z,75.70
2017-09-24T09:30:44.703Z,75.70
2017-09-24T09:33:22.809Z,75.90
2017-09-24T09:35:52.018Z,75.70
2017-09-24T09:38:21.434Z,75.70
2017-09-24T09:40:50.502Z,75.80
2017-09-24T09:56:47.827Z,75.20
2017-09-24T09:59:17.066Z,75.40
2017-09-24T10:01:46.297Z,75.20
2017-09-24T10:04:15.592Z,75.40
2017-09-24T10:07:05.246Z,76.10
2017-09-24T10:09:46.640Z,75.60
2017-09-24T10:12:16.044Z,76.40
2017-09-24T10:14:45.306Z,76.00
2017-09-24T10:17:14.689Z,75.60
2017-09-24T10:19:44.976Z,76.10
2017-09-24T10:22:14.491Z,75.90
2017-09-24T10:24:43.759Z,75.70
2017-09-24T10:27:13.046Z,75.70
2017-09-24T10:29:42.733Z,76.00
2017-09-24T10:32:12.410Z,75.70
2017-09-24T10:34:41.723Z,76.00
2017-09-24T10:37:11.584Z,76.10
2017-09-24T10:39:41.038Z,76.10
2017-09-24T10:42:11.585Z,76.30
2017-09-24T10:44:41.794Z,76.30
2017-09-24T10:47:10.959Z,76.20
2017-09-24T10:49:41.772Z,76.40
2017-09-24T10:52:11.503Z,76.30
2017-09-24T10:54:40.790Z,76.60
2017-09-24T10:57:10.111Z,77.40
2017-09-24T10:59:39.975Z,77.60
2017-09-24T11:02:09.966Z,77.10
2017-09-24T11:04:39.521Z,77.20
2017-09-24T11:07:10.347Z,77.60
2017-09-24T11:09:39.686Z,77.60
2017-09-24T11:12:08.322Z,77.40
2017-09-24T11:14:37.432Z,77.50
2017-09-24T11:17:06.190Z,78.30
2017-09-24T11:19:35.923Z,78.00
2017-09-24T11:22:05.295Z,78.40
2017-09-24T11:24:35.238Z,79.10
2017-09-24T11:27:05.382Z,78.90
2017-09-24T11:29:35.045Z,80.30
2017-09-24T11:32:05.472Z,81.00
2017-09-24T11:34:36.718Z,80.40
2017-09-24T11:37:06.897Z,82.80
2017-09-24T11:39:36.540Z,82.80
2017-09-24T11:42:06.405Z,82.50
2017-09-24T11:44:36.032Z,82.80
2017-09-24T11:47:05.189Z,81.30
2017-09-24T11:49:34.510Z,82.20
2017-09-24T11:52:03.988Z,82.00
2017-09-24T11:54:33.302Z,81.10
2017-09-24T11:57:02.389Z,81.00
2017-09-24T11:59:31.476Z,81.20
2017-09-24T12:02:00.629Z,80.40
2017-09-24T12:04:29.793Z,80.10
2017-09-24T12:06:59.102Z,80.20
2017-09-24T12:09:28.247Z,80.00
2017-09-24T12:11:57.460Z,79.40
2017-09-24T12:14:26.838Z,79.30
2017-09-24T12:16:56.007Z,79.10
2017-09-24T12:19:25.382Z,78.40
2017-09-24T12:21:54.552Z,78.00
2017-09-24T12:24:24.282Z,77.90
2017-09-24T12:26:53.520Z,77.80
2017-09-24T12:29:22.829Z,79.40
2017-09-24T12:31:52.183Z,78.50
2017-09-24T12:34:21.497Z,79.00
2017-09-24T12:36:50.808Z,78.50
2017-09-24T12:39:20.122Z,79.60
2017-09-24T12:41:49.390Z,79.10
2017-09-24T12:44:18.620Z,78.40
2017-09-24T12:46:47.957Z,77.90
2017-09-24T12:49:16.872Z,77.40
2017-09-24T12:51:46.230Z,77.30
2017-09-24T12:54:15.413Z,76.80
2017-09-24T12:56:44.604Z,77.00
2017-09-24T12:59:14.022Z,77.80
2017-09-24T13:01:43.308Z,76.40
2017-09-24T13:04:12.452Z,76.20
2017-09-24T13:06:42.895Z,77.50
2017-09-24T13:09:12.314Z,77.40
2017-09-24T13:11:41.540Z,78.30
2017-09-24T13:14:11.074Z,78.50
2017-09-24T13:16:40.451Z,78.50
2017-09-24T13:19:09.894Z,78.60
2017-09-24T13:21:39.349Z,78.50
2017-09-24T13:24:08.684Z,78.20
2017-09-24T13:26:38.635Z,78.20
2017-09-24T13:29:07.752Z,78.30
2017-09-24T13:31:37.443Z,78.40
2017-09-24T13:34:06.899Z,77.60
2017-09-24T13:36:36.389Z,77.60
2017-09-24T13:39:05.869Z,77.40
2017-09-24T13:41:35.169Z,78.30
2017-09-24T13:44:04.608Z,79.50
2017-09-24T13:46:34.015Z,79.70
2017-09-24T13:49:03.398Z,79.50
2017-09-24T13:51:32.748Z,79.10
2017-09-24T13:54:01.935Z,78.50
2017-09-24T13:56:30.992Z,78.70
2017-09-24T13:59:00.260Z,79.30
2017-09-24T14:01:29.731Z,79.90
2017-09-24T14:03:59.053Z,79.80
2017-09-24T14:06:28.517Z,79.70
2017-09-24T14:08:57.918Z,80.20
2017-09-24T14:11:27.070Z,79.70
2017-09-24T14:13:56.655Z,79.50
2017-09-24T14:16:26.089Z,78.90
2017-09-24T14:18:55.425Z,79.40
2017-09-24T14:21:24.807Z,79.60
2017-09-24T14:23:54.087Z,79.30
2017-09-24T14:26:23.244Z,80.60
2017-09-24T14:28:53.339Z,80.70
2017-09-24T14:31:22.559Z,80.90
2017-09-24T14:33:52.121Z,80.60
2017-09-24T14:36:21.656Z,80.30
2017-09-24T14:38:50.978Z,80.40
2017-09-24T14:41:20.057Z,80.70
2017-09-24T14:43:49.376Z,81.70
2017-09-24T14:46:18.640Z,83.00
2017-09-24T14:48:47.998Z,82.70
2017-09-24T14:51:18.064Z,82.00
2017-09-24T14:53:47.496Z,81.80
2017-09-24T14:56:16.802Z,82.50
2017-09-24T14:58:47.217Z,81.50
2017-09-24T15:01:16.517Z,80.80
2017-09-24T15:03:45.825Z,78.20
2017-09-24T15:06:14.888Z,76.80
2017-09-24T15:08:43.966Z,77.00
2017-09-24T15:11:13.399Z,78.80
2017-09-24T15:13:43.147Z,77.70
2017-09-24T15:16:12.567Z,76.00
2017-09-24T15:18:41.870Z,73.80
2017-09-24T15:21:11.128Z,72.10
2017-09-24T15:23:40.448Z,72.00
2017-09-24T15:26:10.574Z,72.00
2017-09-24T15:28:40.610Z,70.80
2017-09-24T15:31:11.382Z,70.80
2017-09-24T15:33:40.577Z,70.30
2017-09-24T15:36:09.781Z,70.40
2017-09-24T15:38:39.051Z,69.30
2017-09-24T15:41:08.265Z,68.30
2017-09-24T15:43:37.393Z,68.00
2017-09-24T15:46:06.802Z,67.10
2017-09-24T15:48:37.091Z,67.70
2017-09-24T15:51:06.253Z,67.80
2017-09-24T15:53:35.927Z,67.40
2017-09-24T15:56:06.230Z,62.20
2017-09-24T15:58:35.537Z,61.90
2017-09-24T16:01:04.796Z,60.40
2017-09-24T16:03:34.262Z,61.00
2017-09-24T16:06:03.646Z,53.80
2017-09-24T16:08:33.089Z,52.70
2017-09-24T16:11:02.693Z,50.80
2017-09-24T16:13:32.784Z,45.60
2017-09-24T16:16:02.585Z,45.60
2017-09-24T16:18:31.916Z,44.00
2017-09-24T16:21:00.988Z,42.30
2017-09-24T16:23:30.222Z,43.70
2017-09-24T16:25:59.268Z,43.10
2017-09-24T16:28:28.464Z,42.70
2017-09-24T16:30:57.899Z,41.50
2017-09-24T16:33:28.182Z,43.50
2017-09-24T16:35:57.652Z,44.40
2017-09-24T16:38:27.007Z,43.00
2017-09-24T16:40:57.484Z,41.60
2017-09-24T16:43:26.726Z,40.50
2017-09-24T16:45:56.284Z,40.20
2017-09-24T16:48:25.637Z,42.20
2017-09-24T16:50:54.990Z,41.90
2017-09-24T16:53:24.195Z,42.00
2017-09-24T16:55:54.276Z,41.90
2017-09-24T16:58:23.091Z,41.80
2017-09-24T17:00:52.208Z,41.70
2017-09-24T17:03:22.023Z,43.70
2017-09-24T17:05:51.379Z,41.90
2017-09-24T17:08:20.597Z,43.00
2017-09-24T17:10:50.680Z,44.30
2017-09-24T17:13:20.041Z,44.20
2017-09-24T17:15:51.221Z,44.00
2017-09-24T17:18:20.508Z,43.80
2017-09-24T17:20:49.728Z,45.80
2017-09-24T17:23:18.950Z,44.50
2017-09-24T17:25:48.541Z,45.70
2017-09-24T17:28:17.997Z,44.90
2017-09-24T17:30:47.583Z,46.80
2017-09-24T17:33:17.110Z,47.50
2017-09-24T17:35:46.989Z,49.30
2017-09-24T17:38:17.053Z,50.70
2017-09-24T17:40:45.982Z,49.20
2017-09-24T17:43:14.965Z,46.20
2017-09-24T17:45:44.262Z,46.00
2017-09-24T17:48:13.457Z,46.80
2017-09-24T17:50:42.630Z,47.50
2017-09-24T17:53:12.080Z,46.50
2017-09-24T17:55:41.151Z,45.10
2017-09-24T17:58:10.685Z,45.00
2017-09-24T18:00:41.040Z,46.40
2017-09-24T18:03:10.198Z,45.00
2017-09-24T18:05:39.676Z,43.80
2017-09-24T18:08:09.205Z,44.80
2017-09-24T18:10:38.619Z,44.20
2017-09-24T18:13:08.012Z,45.40
2017-09-24T18:15:36.887Z,47.10
2017-09-24T18:18:06.191Z,48.20
2017-09-24T18:20:35.561Z,48.60
2017-09-24T18:23:04.964Z,47.50
2017-09-24T18:25:33.772Z,48.60
2017-09-24T18:28:03.273Z,48.30
2017-09-24T18:30:32.727Z,47.90
2017-09-24T18:33:02.242Z,49.20
2017-09-24T18:35:31.590Z,51.30
2017-09-24T18:38:02.249Z,48.90
2017-09-24T18:40:31.337Z,48.60
2017-09-24T18:43:00.746Z,47.70
2017-09-24T18:45:29.934Z,47.40
2017-09-24T18:48:00.332Z,45.50
2017-09-24T18:50:29.734Z,46.90
2017-09-24T18:52:59.039Z,45.60
2017-09-24T18:55:28.441Z,47.00
2017-09-24T18:57:58.513Z,44.50
2017-09-24T19:00:27.591Z,44.50
2017-09-24T19:02:56.783Z,43.80
2017-09-24T19:05:26.542Z,44.30
2017-09-24T19:07:56.657Z,43.90
2017-09-24T19:10:26.077Z,44.00
2017-09-24T19:12:56.156Z,44.40
2017-09-24T19:15:25.765Z,44.30
2017-09-24T19:17:54.849Z,44.00
2017-09-24T19:20:24.037Z,44.40
2017-09-24T19:22:53.743Z,45.10
2017-09-24T19:25:23.101Z,45.60
2017-09-24T19:27:52.601Z,45.10
2017-09-24T19:30:22.058Z,44.60
2017-09-24T19:32:52.860Z,46.10
2017-09-24T19:35:23.401Z,44.60
2017-09-24T19:37:54.043Z,44.50
2017-09-24T19:40:24.983Z,44.10
2017-09-24T19:42:54.536Z,45.50
2017-09-24T19:45:24.184Z,45.90
2017-09-24T19:47:54.615Z,45.70
2017-09-24T19:50:24.177Z,45.70
2017-09-24T19:52:53.431Z,44.80
2017-09-24T19:55:22.956Z,44.10
2017-09-24T19:57:52.471Z,41.70
2017-09-24T20:00:22.186Z,41.30
2017-09-24T20:02:51.438Z,40.90
2017-09-24T20:05:20.619Z,40.20
2017-09-24T20:07:50.042Z,39.90
2017-09-24T20:10:20.153Z,38.90
2017-09-24T20:12:49.326Z,38.80
2017-09-24T20:15:19.480Z,39.80
2017-09-24T20:17:48.994Z,39.80
2017-09-24T20:20:18.508Z,40.00
2017-09-24T20:22:47.899Z,38.70
2017-09-24T20:25:17.336Z,38.60
2017-09-24T20:27:46.871Z,40.30
2017-09-24T20:30:16.076Z,40.10
2017-09-24T20:32:46.245Z,39.90
2017-09-24T20:35:15.927Z,39.80
2017-09-24T20:37:45.418Z,36.40
2017-09-24T20:40:15.154Z,36.90
2017-09-24T20:42:45.111Z,37.50
2017-09-24T20:45:14.932Z,34.30
2017-09-24T20:47:44.119Z,35.80
2017-09-24T20:50:13.439Z,34.70
2017-09-24T20:52:43.661Z,34.70
2017-09-24T20:55:13.665Z,34.80
2017-09-24T20:57:43.372Z,34.60
2017-09-24T21:00:13.915Z,35.60
2017-09-24T21:02:44.240Z,33.10
2017-09-24T21:05:14.433Z,33.00
2017-09-24T21:07:43.709Z,33.00
2017-09-24T21:10:13.106Z,33.80
2017-09-24T21:12:42.608Z,33.60
2017-09-24T21:15:12.368Z,33.10
2017-09-24T21:17:41.930Z,33.00
2017-09-24T21:20:11.165Z,31.90
2017-09-24T21:22:40.605Z,31.20
2017-09-24T21:25:10.315Z,32.70
2017-09-24T21:27:39.657Z,32.10
2017-09-24T21:30:09.124Z,31.00
2017-09-24T21:32:38.734Z,29.30
2017-09-24T21:35:08.375Z,29.10
2017-09-24T21:37:38.517Z,28.80
2017-09-24T21:40:07.763Z,28.40
2017-09-24T21:42:37.803Z,29.40
2017-09-24T21:45:07.801Z,29.30
2017-09-24T21:47:37.332Z,28.70
2017-09-24T21:50:06.890Z,29.20
2017-09-24T21:52:36.056Z,30.00
2017-09-24T21:55:05.587Z,28.10
2017-09-24T21:57:35.059Z,27.70
2017-09-24T22:00:04.379Z,28.20
2017-09-24T22:02:35.349Z,26.30
2017-09-24T22:05:04.695Z,27.50
2017-09-24T22:07:33.804Z,27.40
2017-09-24T22:10:03.237Z,26.80
2017-09-24T22:12:32.611Z,28.90
2017-09-24T22:15:02.172Z,28.80
2017-09-24T22:17:32.030Z,29.20
2017-09-24T22:20:01.330Z,28.50
2017-09-24T22:22:30.745Z,25.50
2017-09-24T22:25:00.027Z,24.00
2017-09-24T22:27:29.529Z,24.50
2017-09-24T22:29:59.222Z,24.30
2017-09-24T22:32:28.673Z,24.30
2017-09-24T22:34:58.498Z,24.40
2017-09-24T22:37:28.970Z,24.20
2017-09-24T22:39:58.122Z,24.20
2017-09-24T22:42:28.794Z,23.60
2017-09-24T22:44:58.221Z,23.60
2017-09-24T22:47:28.520Z,23.40
2017-09-24T22:49:57.948Z,23.10
2017-09-24T22:52:27.337Z,23.50
2017-09-24T22:54:56.733Z,22.70
2017-09-24T22:57:25.768Z,22.50
2017-09-24T22:59:54.482Z,22.90
2017-09-24T23:02:24.761Z,21.80
2017-09-24T23:04:54.456Z,21.70
2017-09-24T23:07:24.278Z,22.70
2017-09-24T23:09:54.190Z,21.10
2017-09-24T23:12:24.709Z,22.00
2017-09-24T23:14:54.625Z,23.40
2017-09-24T23:17:23.806Z,22.60
2017-09-24T23:19:53.109Z,21.90
2017-09-24T23:22:22.812Z,21.60
2017-09-24T23:24:55.287Z,21.50
2017-09-24T23:27:25.155Z,22.10
2017-09-24T23:29:55.642Z,22.20
2017-09-24T23:32:24.955Z,22.10
2017-09-24T23:34:54.229Z,21.90
2017-09-24T23:37:23.720Z,21.80
2017-09-24T23:39:53.971Z,21.70
2017-09-24T23:42:23.512Z,21.60
2017-09-24T23:44:52.884Z,21.40
2017-09-24T23:47:22.182Z,21.60
2017-09-24T23:49:52.361Z,21.40
2017-09-24T23:52:22.488Z,20.70
2017-09-24T23:54:52.711Z,20.70
2017-09-24T23:57:22.882Z,21.40
2017-09-24T23:59:52.288Z,21.40
